createdAt,value
2022-09-04T00:00:51.805Z,97697.50
2022-09-04T00:03:28.547Z,97696.94
2022-09-04T00:06:05.421Z,97690.72
2022-09-04T00:08:52.164Z,97686.63
2022-09-04T00:11:51.054Z,97691.53
2022-09-04T00:14:38.183Z,97689.91
2022-09-04T00:17:25.074Z,97697.00
2022-09-04T00:20:01.875Z,97700.81
2022-09-04T00:22:50.701Z,97696.16
2022-09-04T00:25:21.302Z,97703.81
2022-09-04T00:27:53.816Z,97708.00
2022-09-04T00:30:22.291Z,97712.34
2022-09-04T00:33:05.743Z,97706.25
2022-09-04T00:35:44.808Z,97710.56
2022-09-04T00:38:22.631Z,97707.69
2022-09-04T00:41:31.060Z,97710.91
2022-09-04T00:44:59.444Z,97713.25
2022-09-04T00:48:07.369Z,97714.31
2022-09-04T00:50:46.537Z,97709.06
2022-09-04T00:53:44.548Z,97711.22
2022-09-04T00:56:53.202Z,97709.19
2022-09-04T00:59:57.682Z,97710.66
2022-09-04T01:02:46.509Z,97704.44
2022-09-04T01:05:33.413Z,97712.28
2022-09-04T01:08:44.982Z,97717.53
2022-09-04T01:11:41.505Z,97717.06
2022-09-04T01:17:41.109Z,97719.75
2022-09-04T01:20:47.036Z,97717.25
2022-09-04T01:23:38.232Z,97720.75
2022-09-04T01:26:28.107Z,97726.25
2022-09-04T01:29:45.946Z,97732.97
2022-09-04T01:32:31.654Z,97738.63
2022-09-04T01:35:19.957Z,97726.72
2022-09-04T01:38:18.034Z,97725.84
2022-09-04T01:40:48.710Z,97731.22
2022-09-04T01:43:18.637Z,97731.22
2022-09-04T01:46:44.048Z,97730.03
2022-09-04T01:49:48.112Z,97736.06
2022-09-04T01:52:41.056Z,97728.47
2022-09-04T01:55:34.243Z,97745.41
2022-09-04T01:58:29.417Z,97740.34
2022-09-04T02:01:35.693Z,97736.81
2022-09-04T02:04:39.317Z,97750.72
2022-09-04T02:07:33.642Z,97736.81
2022-09-04T02:10:29.123Z,97746.63
2022-09-04T02:13:08.047Z,97746.19
2022-09-04T02:19:28.565Z,97738.72
2022-09-04T02:22:24.929Z,97742.78
2022-09-04T02:25:16.603Z,97749.59
2022-09-04T02:28:06.460Z,97743.97
2022-09-04T02:30:59.821Z,97742.78
2022-09-04T02:33:52.684Z,97744.81
2022-09-04T02:36:34.858Z,97748.75
2022-09-04T02:39:11.537Z,97742.50
2022-09-04T02:42:19.685Z,97743.56
2022-09-04T02:45:08.101Z,97746.72
2022-09-04T02:57:55.206Z,97750.25
2022-09-04T03:00:43.342Z,97749.28
2022-09-04T03:03:21.285Z,97749.84
2022-09-04T03:06:03.443Z,97752.47
2022-09-04T03:09:02.002Z,97756.28
2022-09-04T03:11:55.250Z,97755.41
2022-09-04T03:14:35.309Z,97762.56
2022-09-04T03:17:13.440Z,97768.50
2022-09-04T03:19:50.636Z,97766.81
2022-09-04T03:22:42.768Z,97768.69
2022-09-04T03:25:32.825Z,97766.06
2022-09-04T03:28:00.561Z,97777.06
2022-09-04T03:30:32.128Z,97781.28
2022-09-04T03:33:12.760Z,97774.91
2022-09-04T03:36:23.155Z,97782.03
2022-09-04T03:39:04.677Z,97787.69
2022-09-04T03:41:38.628Z,97786.53
2022-09-04T03:44:45.570Z,97783.78
2022-09-04T03:48:04.242Z,97791.44
2022-09-04T03:50:42.551Z,97794.03
2022-09-04T03:53:41.546Z,97793.19
2022-09-04T03:56:49.815Z,97807.69
2022-09-04T03:59:52.364Z,97801.72
2022-09-04T04:03:01.479Z,97809.13
2022-09-04T04:05:44.049Z,97799.88
2022-09-04T04:08:56.675Z,97800.75
2022-09-04T04:12:13.295Z,97806.69
2022-09-04T04:15:21.401Z,97810.88
2022-09-04T04:54:57.953Z,97856.25
2022-09-04T04:57:40.318Z,97861.91
2022-09-04T05:00:26.839Z,97868.41
2022-09-04T05:03:32.342Z,97869.72
2022-09-04T05:06:10.212Z,97868.84
2022-09-04T05:09:09.622Z,97880.41
2022-09-04T05:12:20.606Z,97880.72
2022-09-04T05:15:03.318Z,97885.03
2022-09-04T05:18:07.451Z,97893.00
2022-09-04T05:21:38.811Z,97901.28
2022-09-04T05:24:13.417Z,97899.09
2022-09-04T05:26:54.867Z,97900.94
2022-09-04T05:29:51.443Z,97891.69
2022-09-04T06:33:22.576Z,97923.66
2022-09-04T06:36:14.410Z,97929.69
2022-09-04T06:39:22.851Z,97925.66
2022-09-04T06:42:11.567Z,97937.09
2022-09-04T06:45:20.966Z,97941.44
2022-09-04T06:48:34.220Z,97943.22
2022-09-04T06:51:32.322Z,97935.41
2022-09-04T06:54:13.886Z,97944.50
2022-09-04T06:57:23.814Z,97946.34
2022-09-04T07:00:12.042Z,97954.28
2022-09-04T07:03:20.870Z,97955.34
2022-09-04T07:06:05.122Z,97953.91
2022-09-04T07:08:58.005Z,97964.94
2022-09-04T07:11:56.771Z,97964.84
2022-09-04T07:14:53.461Z,97973.16
2022-09-04T07:18:01.163Z,97971.91
2022-09-04T07:21:07.692Z,97970.00
2022-09-04T07:24:34.659Z,97973.78
2022-09-04T07:27:53.833Z,97974.31
2022-09-04T07:30:22.687Z,97980.00
2022-09-04T07:32:56.772Z,97986.81
2022-09-04T07:35:45.304Z,97997.38
2022-09-04T07:41:36.297Z,97998.88
2022-09-04T07:45:00.801Z,98005.22
2022-09-04T07:47:35.061Z,98009.78
2022-09-04T07:50:21.225Z,98007.03
2022-09-04T07:53:35.651Z,98009.69
2022-09-04T07:59:59.205Z,98016.66
2022-09-04T08:02:38.550Z,98022.34
2022-09-04T08:05:24.658Z,98020.44
2022-09-04T08:08:53.427Z,98026.56
2022-09-04T08:11:45.475Z,98029.72
2022-09-04T08:15:04.600Z,98035.16
2022-09-04T08:18:14.721Z,98039.34
2022-09-04T08:21:27.313Z,98033.81
2022-09-04T08:24:12.205Z,98033.97
2022-09-04T08:27:15.386Z,98033.59
2022-09-04T08:29:53.793Z,98034.78
2022-09-04T08:32:51.271Z,98043.66
2022-09-04T08:36:12.170Z,98046.19
2022-09-04T08:39:07.357Z,98053.56
2022-09-04T08:42:21.801Z,98052.47
2022-09-04T08:45:28.980Z,98052.22
2022-09-04T08:48:42.042Z,98054.03
2022-09-04T08:51:31.293Z,98049.47
2022-09-04T08:54:35.223Z,98053.34
2022-09-04T09:00:21.712Z,98049.75
2022-09-04T09:03:34.457Z,98052.50
2022-09-04T09:09:43.467Z,98067.53
2022-09-04T09:22:26.622Z,98071.81
2022-09-04T09:25:20.829Z,98067.25
2022-09-04T09:28:25.107Z,98067.13
2022-09-04T09:31:38.288Z,98066.44
2022-09-04T09:34:52.159Z,98067.75
2022-09-04T09:38:12.315Z,98068.59
2022-09-04T09:41:39.672Z,98063.31
2022-09-04T09:47:57.582Z,98069.00
2022-09-04T09:51:00.700Z,98063.56
2022-09-04T09:54:09.253Z,98058.50
2022-09-04T09:57:29.671Z,98056.91
2022-09-04T10:00:17.260Z,98051.66
2022-09-04T10:03:20.696Z,98051.72
2022-09-04T10:06:24.344Z,98053.84
2022-09-04T10:09:29.857Z,98055.94
2022-09-04T10:12:33.997Z,98047.13
2022-09-04T10:15:48.394Z,98039.19
2022-09-04T10:18:36.574Z,98048.06
2022-09-04T10:21:55.247Z,98043.25
2022-09-04T10:25:06.399Z,98049.00
2022-09-04T10:27:43.662Z,98044.81
2022-09-04T10:30:17.193Z,98044.94
2022-09-04T10:33:42.410Z,98043.41
2022-09-04T10:36:22.722Z,98037.47
2022-09-04T10:39:46.139Z,98047.25
2022-09-04T10:43:17.622Z,98043.81
2022-09-04T11:02:27.299Z,98052.34
2022-09-04T11:09:03.246Z,98045.34
2022-09-04T11:22:02.734Z,98054.28
2022-09-04T11:28:01.982Z,98054.16
2022-09-04T11:30:55.689Z,98052.72
2022-09-04T11:43:02.897Z,98058.19
2022-09-04T12:31:13.032Z,98017.38
2022-09-04T12:34:09.902Z,98008.06
2022-09-04T13:15:45.923Z,98018.88
2022-09-04T13:25:28.731Z,98015.66
2022-09-04T13:28:16.963Z,98011.44
2022-09-04T13:31:00.094Z,98020.78
2022-09-04T13:33:51.256Z,98012.28
2022-09-04T13:40:30.070Z,98009.38
2022-09-04T13:43:14.454Z,98008.81
2022-09-04T13:45:45.595Z,98013.31
2022-09-04T13:48:20.068Z,98013.09
2022-09-04T13:50:55.689Z,98015.03
2022-09-04T13:53:35.978Z,98004.69
2022-09-04T13:56:12.871Z,98003.50
2022-09-04T13:58:49.600Z,98006.53
2022-09-04T14:01:21.770Z,98011.31
2022-09-04T14:04:04.451Z,98013.97
2022-09-04T14:06:34.719Z,98009.03
2022-09-04T14:09:06.008Z,98000.03
2022-09-04T14:11:58.395Z,98008.22
2022-09-04T14:15:13.625Z,98004.00
2022-09-04T14:18:23.258Z,98001.44
2022-09-04T14:21:01.278Z,98005.91
2022-09-04T14:24:32.979Z,98004.66
2022-09-04T14:27:21.257Z,98008.53
2022-09-04T14:30:19.037Z,98002.34
2022-09-04T14:33:34.734Z,98008.06
2022-09-04T14:36:35.598Z,98007.50
2022-09-04T14:39:20.627Z,98007.31
2022-09-04T14:42:30.738Z,98007.06
2022-09-04T14:45:26.284Z,98010.72
2022-09-04T14:47:58.938Z,98012.63
2022-09-04T14:50:30.271Z,98013.66
2022-09-04T14:53:04.597Z,98017.25
2022-09-04T14:55:34.132Z,98015.59
2022-09-04T14:58:23.386Z,98011.63
2022-09-04T15:01:01.096Z,98011.88
2022-09-04T15:03:51.055Z,98017.38
2022-09-04T15:06:32.533Z,98018.34
2022-09-04T15:09:35.087Z,98018.50
2022-09-04T15:12:34.284Z,98023.16
2022-09-04T15:15:32.203Z,98018.09
2022-09-04T15:18:10.979Z,98018.00
2022-09-04T15:20:53.779Z,98028.41
2022-09-04T15:23:30.905Z,98021.47
2022-09-04T15:26:09.626Z,98022.22
2022-09-04T15:28:48.670Z,98018.97
2022-09-04T15:31:43.041Z,98016.34
2022-09-04T15:34:21.174Z,98020.63
2022-09-04T15:36:48.734Z,98019.84
2022-09-04T15:39:31.977Z,98032.47
2022-09-04T15:42:00.035Z,98025.47
2022-09-04T15:44:38.948Z,98029.59
2022-09-04T15:47:54.810Z,98029.59
2022-09-04T15:50:27.741Z,98023.50
2022-09-04T15:53:13.000Z,98028.34
2022-09-04T15:55:42.708Z,98031.47
2022-09-04T15:58:53.140Z,98032.09
2022-09-04T16:01:28.439Z,98032.03
2022-09-04T16:04:26.339Z,98036.00
2022-09-04T16:07:02.426Z,98037.19
2022-09-04T16:09:53.179Z,98041.97
2022-09-04T16:12:51.285Z,98040.44
2022-09-04T16:15:24.912Z,98041.53
2022-09-04T16:17:54.680Z,98042.19
2022-09-04T16:20:39.426Z,98046.06
2022-09-04T16:23:09.849Z,98045.72
2022-09-04T16:25:43.588Z,98040.59
2022-09-04T16:28:34.673Z,98039.69
2022-09-04T16:31:03.932Z,98041.06
2022-09-04T16:33:53.355Z,98043.56
2022-09-04T16:36:40.653Z,98052.84
2022-09-04T16:39:14.239Z,98052.13
2022-09-04T16:41:56.860Z,98057.25
2022-09-04T16:44:33.063Z,98056.09
2022-09-04T16:47:10.469Z,98059.31
2022-09-04T16:49:49.379Z,98059.66
2022-09-04T16:53:14.781Z,98062.06
2022-09-04T16:55:58.445Z,98067.41
2022-09-04T16:58:46.076Z,98067.13
2022-09-04T17:01:22.855Z,98064.16
2022-09-04T17:04:13.342Z,98074.91
2022-09-04T17:07:05.197Z,98074.19
2022-09-04T17:10:01.952Z,98078.00
2022-09-04T17:12:53.357Z,98071.34
2022-09-04T17:15:38.441Z,98078.16
2022-09-04T17:18:11.942Z,98081.06
2022-09-04T17:22:43.368Z,98079.47
2022-09-04T17:29:00.495Z,98073.69
2022-09-04T17:29:18.569Z,98075.56
2022-09-04T17:29:51.761Z,98082.84
2022-09-04T17:34:14.646Z,98083.19
2022-09-04T17:40:36.000Z,98083.00
2022-09-04T17:40:48.033Z,98076.38
2022-09-04T17:41:55.946Z,98087.19
2022-09-04T17:45:03.718Z,98088.31
2022-09-04T17:48:01.982Z,98085.97
2022-09-04T17:50:29.328Z,98089.88
2022-09-04T17:53:05.099Z,98093.16
2022-09-04T17:55:47.699Z,98087.41
2022-09-04T17:58:26.413Z,98098.28
2022-09-04T18:01:15.392Z,98098.09
2022-09-04T18:04:32.203Z,98103.44
2022-09-04T18:07:50.954Z,98099.81
2022-09-04T18:10:31.383Z,98100.44
2022-09-04T18:13:36.664Z,98109.16
2022-09-04T18:17:12.204Z,98114.81
2022-09-04T18:19:46.797Z,98123.31
2022-09-04T18:22:59.629Z,98125.75
2022-09-04T18:25:53.864Z,98126.63
2022-09-04T18:28:33.683Z,98128.34
2022-09-04T18:37:06.526Z,98135.00
2022-09-04T18:37:16.432Z,98147.09
2022-09-04T18:37:55.569Z,98153.03
2022-09-04T18:44:47.930Z,98152.78
2022-09-04T18:50:28.538Z,98155.13
2022-09-04T18:50:37.749Z,98157.66
2022-09-04T18:50:39.646Z,98155.41
2022-09-04T18:52:18.973Z,98160.59
2022-09-04T18:54:50.932Z,98156.66
2022-09-04T18:57:49.057Z,98152.81
2022-09-04T19:01:11.315Z,98156.31
2022-09-04T19:03:45.784Z,98160.06
2022-09-04T19:06:27.889Z,98161.13
2022-09-04T19:08:58.819Z,98157.16
2022-09-04T19:11:31.795Z,98161.63
2022-09-04T19:14:10.510Z,98161.38
2022-09-04T19:16:43.898Z,98164.50
2022-09-04T19:19:51.414Z,98161.63
2022-09-04T19:22:51.456Z,98156.91
2022-09-04T19:25:25.166Z,98160.91
2022-09-04T19:28:52.358Z,98155.25
2022-09-04T19:31:33.160Z,98159.94
2022-09-04T19:34:10.783Z,98160.41
2022-09-04T19:36:54.041Z,98163.06
2022-09-04T19:45:55.414Z,98163.06
2022-09-04T19:46:07.642Z,98162.47
2022-09-04T19:46:14.941Z,98168.94
2022-09-04T19:49:45.136Z,98168.94
2022-09-04T19:53:24.424Z,98157.50
2022-09-04T19:54:59.965Z,98160.38
2022-09-04T19:58:00.558Z,98162.78
2022-09-04T20:00:42.737Z,98167.41
2022-09-04T20:03:33.064Z,98166.69
2022-09-04T20:06:21.104Z,98166.13
2022-09-04T20:09:14.321Z,98169.63
2022-09-04T20:11:47.961Z,98162.59
2022-09-04T20:14:40.007Z,98170.63
2022-09-04T20:17:33.393Z,98169.41
2022-09-04T20:20:06.499Z,98158.06
2022-09-04T20:22:48.220Z,98156.38
2022-09-04T20:32:08.497Z,98160.91
2022-09-04T20:35:13.541Z,98163.53
2022-09-04T20:37:53.748Z,98159.66
2022-09-04T20:40:59.908Z,98174.06
2022-09-04T20:52:49.026Z,98165.63
2022-09-04T20:52:50.301Z,98177.41
2022-09-04T20:53:09.583Z,98173.53
2022-09-04T20:56:17.093Z,98180.72
2022-09-04T21:03:05.537Z,98187.41
2022-09-04T21:03:20.866Z,98183.94
2022-09-04T21:05:22.676Z,98185.84
2022-09-04T21:08:19.891Z,98178.41
2022-09-04T21:10:55.712Z,98177.53
2022-09-04T21:13:28.493Z,98196.16
2022-09-04T21:16:11.609Z,98191.97
2022-09-04T21:19:29.748Z,98194.06
2022-09-04T21:22:33.968Z,98190.13
2022-09-04T21:25:33.087Z,98193.34
2022-09-04T21:28:41.678Z,98188.25
2022-09-04T21:31:47.283Z,98194.53
2022-09-04T21:35:06.346Z,98193.47
2022-09-04T21:38:17.378Z,98197.97
2022-09-04T21:41:21.765Z,98196.69
2022-09-04T21:44:14.665Z,98197.75
2022-09-04T21:47:24.546Z,98205.56
2022-09-04T21:50:36.245Z,98213.38
2022-09-04T22:13:27.143Z,98227.41
2022-09-04T22:13:46.007Z,98217.38
2022-09-04T22:15:05.754Z,98219.88
2022-09-04T22:20:57.670Z,98215.69
2022-09-04T22:23:59.774Z,98212.94
2022-09-04T22:26:50.421Z,98207.28
2022-09-04T22:29:39.814Z,98200.44
2022-09-04T22:32:27.714Z,98202.06
2022-09-04T22:35:46.348Z,98203.81
2022-09-04T22:38:54.122Z,98202.38
2022-09-04T22:42:05.600Z,98197.44
2022-09-04T22:44:40.964Z,98208.78
2022-09-04T23:13:57.109Z,98232.28
2022-09-04T23:16:01.667Z,98220.09
2022-09-04T23:23:20.060Z,98227.34
2022-09-04T23:26:38.495Z,98215.59
2022-09-04T23:26:50.537Z,98214.72
2022-09-04T23:29:15.933Z,98218.78
2022-09-04T23:32:16.563Z,98225.75
2022-09-04T23:35:14.728Z,98221.53
2022-09-04T23:38:21.277Z,98217.75
2022-09-04T23:41:21.912Z,98217.19
